Aviation Digital Data Service (ADDS)

Output produced by TAFs form (0157 UTC 27 March 2015)
found at http://aviationweather.gov/adds/tafs/
 
KCNY 262326Z 2700/2724 VRB04KT P6SM FEW250 
     FM271900 31005KT P6SM SKC